Terminal Aerodrome Forecast
Issued by NWS

Current Version | Previous Version | Text Only | Print | Product List | Glossary On
Versions: 1 2 3 4 5 6 7 8 9 10 11 12 13 14 15 16 17 18 19 20
000
FTUS46 KLOX 050520
TAFPRB
TAF
KPRB 050520Z 0506/0606 29010KT P6SM SKC
     FM051000 VRB03KT P6SM SKC
     FM052000 20012KT P6SM SKC
     FM060200 30010KT P6SM SKC=

USA.gov is the U.S. government's official web portal to all federal, state and local government web resources and services.